sensor_id;sensor_type;location;lat;lon;timestamp;pressure;altitude;pressure_sealevel;temperature;humidity
3598;BME280;1813;52.016;8.714;2023-03-26T00:00:31;-16261.94;;;-139.71;80.67
3598;BME280;1813;52.016;8.714;2023-03-26T00:03:05;-16261.94;;;-139.71;80.72
3598;BME280;1813;52.016;8.714;2023-03-26T00:05:43;-16261.94;;;-139.71;80.50
3598;BME280;1813;52.016;8.714;2023-03-26T00:08:17;-16261.94;;;-139.71;80.48
3598;BME280;1813;52.016;8.714;2023-03-26T00:10:51;-16261.94;;;-139.71;80.61
3598;BME280;1813;52.016;8.714;2023-03-26T00:13:25;-16261.94;;;-139.71;80.54
3598;BME280;1813;52.016;8.714;2023-03-26T00:16:00;-16261.94;;;-139.71;80.46
3598;BME280;1813;52.016;8.714;2023-03-26T00:18:34;-16261.94;;;-139.71;80.60
3598;BME280;1813;52.016;8.714;2023-03-26T00:21:14;-16261.94;;;-139.71;80.68
3598;BME280;1813;52.016;8.714;2023-03-26T00:23:48;-16261.94;;;-139.71;80.73
3598;BME280;1813;52.016;8.714;2023-03-26T00:26:23;-16261.94;;;-139.71;80.98
3598;BME280;1813;52.016;8.714;2023-03-26T00:28:57;-16261.94;;;-139.71;81.08
3598;BME280;1813;52.016;8.714;2023-03-26T00:31:34;-16261.94;;;-139.71;81.15
3598;BME280;1813;52.016;8.714;2023-03-26T00:34:09;-16261.94;;;-139.71;81.30
3598;BME280;1813;52.016;8.714;2023-03-26T00:36:47;-16261.94;;;-139.71;81.39
3598;BME280;1813;52.016;8.714;2023-03-26T00:39:24;-16261.94;;;-139.71;81.39
3598;BME280;1813;52.016;8.714;2023-03-26T00:41:59;-16261.94;;;-139.71;81.74
3598;BME280;1813;52.016;8.714;2023-03-26T00:44:36;-16261.94;;;-139.71;81.87
3598;BME280;1813;52.016;8.714;2023-03-26T00:47:10;-16261.94;;;-139.71;82.14
3598;BME280;1813;52.016;8.714;2023-03-26T00:49:44;-16261.94;;;-139.71;82.17
3598;BME280;1813;52.016;8.714;2023-03-26T00:52:21;-16261.94;;;-139.71;82.28
3598;BME280;1813;52.016;8.714;2023-03-26T00:54:55;-16261.94;;;-139.71;82.34
3598;BME280;1813;52.016;8.714;2023-03-26T00:57:28;-16261.94;;;-139.71;82.32
3598;BME280;1813;52.016;8.714;2023-03-26T01:00:05;-16261.94;;;-139.71;82.43
3598;BME280;1813;52.016;8.714;2023-03-26T01:02:46;-16261.94;;;-139.71;82.61
3598;BME280;1813;52.016;8.714;2023-03-26T01:05:43;-16261.94;;;-139.71;82.53
3598;BME280;1813;52.016;8.714;2023-03-26T01:08:24;-16261.94;;;-139.71;82.75
3598;BME280;1813;52.016;8.714;2023-03-26T01:11:03;-16261.94;;;-139.71;82.81
3598;BME280;1813;52.016;8.714;2023-03-26T01:13:46;-16261.94;;;-139.71;82.83
3598;BME280;1813;52.016;8.714;2023-03-26T01:16:25;-16261.94;;;-139.71;82.89
3598;BME280;1813;52.016;8.714;2023-03-26T01:18:59;-16261.94;;;-139.71;83.06
3598;BME280;1813;52.016;8.714;2023-03-26T01:21:33;-16261.94;;;-139.71;83.23
3598;BME280;1813;52.016;8.714;2023-03-26T01:24:11;-16261.94;;;-139.71;83.19
3598;BME280;1813;52.016;8.714;2023-03-26T01:27:03;-16261.94;;;-139.71;83.34
3598;BME280;1813;52.016;8.714;2023-03-26T01:29:43;-16261.94;;;-139.71;83.43
3598;BME280;1813;52.016;8.714;2023-03-26T01:32:24;-16261.94;;;-139.71;83.34
3598;BME280;1813;52.016;8.714;2023-03-26T01:35:12;-16261.94;;;-139.71;83.08
3598;BME280;1813;52.016;8.714;2023-03-26T01:37:59;-16261.94;;;-139.71;83.15
3598;BME280;1813;52.016;8.714;2023-03-26T01:40:54;-16261.94;;;-139.71;83.21
3598;BME280;1813;52.016;8.714;2023-03-26T01:43:35;-16261.94;;;-139.71;83.19
3598;BME280;1813;52.016;8.714;2023-03-26T01:46:13;-16261.94;;;-139.71;83.50
3598;BME280;1813;52.016;8.714;2023-03-26T01:48:48;-16261.94;;;-139.71;83.44
3598;BME280;1813;52.016;8.714;2023-03-26T01:51:28;-16261.94;;;-139.71;83.57
3598;BME280;1813;52.016;8.714;2023-03-26T01:54:04;-16261.94;;;-139.71;83.59
3598;BME280;1813;52.016;8.714;2023-03-26T01:56:48;-16261.94;;;-139.71;83.47
3598;BME280;1813;52.016;8.714;2023-03-26T01:59:48;-16261.94;;;-139.71;83.47
3598;BME280;1813;52.016;8.714;2023-03-26T02:02:30;-16261.94;;;-139.71;83.52
3598;BME280;1813;52.016;8.714;2023-03-26T02:05:14;-16261.94;;;-139.71;83.67
3598;BME280;1813;52.016;8.714;2023-03-26T02:07:52;-16261.94;;;-139.71;83.72
3598;BME280;1813;52.016;8.714;2023-03-26T02:10:30;-16261.94;;;-139.71;83.79
3598;BME280;1813;52.016;8.714;2023-03-26T02:13:09;-16261.94;;;-139.71;83.74
3598;BME280;1813;52.016;8.714;2023-03-26T02:15:53;-16261.94;;;-139.71;83.56
3598;BME280;1813;52.016;8.714;2023-03-26T02:18:28;-16261.94;;;-139.71;83.51
3598;BME280;1813;52.016;8.714;2023-03-26T02:21:08;-16261.94;;;-139.71;83.37
3598;BME280;1813;52.016;8.714;2023-03-26T02:23:46;-16261.94;;;-139.71;83.37
3598;BME280;1813;52.016;8.714;2023-03-26T02:26:21;-16261.94;;;-139.71;83.60
3598;BME280;1813;52.016;8.714;2023-03-26T02:29:14;-16261.94;;;-139.71;83.47
3598;BME280;1813;52.016;8.714;2023-03-26T02:31:51;-16261.94;;;-139.71;83.45
3598;BME280;1813;52.016;8.714;2023-03-26T02:34:25;-16261.94;;;-139.71;83.52
3598;BME280;1813;52.016;8.714;2023-03-26T02:36:59;-16261.94;;;-139.71;83.62
3598;BME280;1813;52.016;8.714;2023-03-26T02:39:33;-16261.94;;;-139.71;83.61
3598;BME280;1813;52.016;8.714;2023-03-26T02:42:15;-16261.94;;;-139.71;83.69
3598;BME280;1813;52.016;8.714;2023-03-26T02:44:55;-16261.94;;;-139.71;83.71
3598;BME280;1813;52.016;8.714;2023-03-26T02:48:07;-16261.94;;;-139.71;83.70
3598;BME280;1813;52.016;8.714;2023-03-26T02:50:54;-16261.94;;;-139.71;83.72
3598;BME280;1813;52.016;8.714;2023-03-26T02:53:31;-16261.94;;;-139.71;83.70
3598;BME280;1813;52.016;8.714;2023-03-26T02:56:25;-16261.94;;;-139.71;83.57
3598;BME280;1813;52.016;8.714;2023-03-26T02:59:19;-16261.94;;;-139.71;83.63
3598;BME280;1813;52.016;8.714;2023-03-26T03:02:16;-16261.94;;;-139.71;83.70
3598;BME280;1813;52.016;8.714;2023-03-26T03:04:51;-16261.94;;;-139.71;83.76
3598;BME280;1813;52.016;8.714;2023-03-26T03:07:34;-16261.94;;;-139.71;83.63
3598;BME280;1813;52.016;8.714;2023-03-26T03:10:09;-16261.94;;;-139.71;83.75
3598;BME280;1813;52.016;8.714;2023-03-26T03:13:09;-16261.94;;;-139.71;83.84
3598;BME280;1813;52.016;8.714;2023-03-26T03:15:43;-16261.94;;;-139.71;83.84
3598;BME280;1813;52.016;8.714;2023-03-26T03:18:19;-16261.94;;;-139.71;84.03
3598;BME280;1813;52.016;8.714;2023-03-26T03:20:53;-16261.94;;;-139.71;83.80
3598;BME280;1813;52.016;8.714;2023-03-26T03:23:27;-16261.94;;;-139.71;83.90
3598;BME280;1813;52.016;8.714;2023-03-26T03:26:12;-16261.94;;;-139.71;83.91
3598;BME280;1813;52.016;8.714;2023-03-26T03:28:53;-16261.94;;;-139.71;84.12
3598;BME280;1813;52.016;8.714;2023-03-26T03:31:27;-16261.94;;;-139.71;84.17
3598;BME280;1813;52.016;8.714;2023-03-26T03:34:09;-16261.94;;;-139.71;84.04
3598;BME280;1813;52.016;8.714;2023-03-26T03:36:49;-16261.94;;;-139.71;84.14
3598;BME280;1813;52.016;8.714;2023-03-26T03:39:43;-16261.94;;;-139.71;84.28
3598;BME280;1813;52.016;8.714;2023-03-26T03:42:22;-16261.94;;;-139.71;84.26
3598;BME280;1813;52.016;8.714;2023-03-26T03:44:59;-16261.94;;;-139.71;84.17
3598;BME280;1813;52.016;8.714;2023-03-26T03:47:50;-16261.94;;;-139.71;84.07
3598;BME280;1813;52.016;8.714;2023-03-26T03:50:33;-16261.94;;;-139.71;84.19
3598;BME280;1813;52.016;8.714;2023-03-26T03:53:31;-16261.94;;;-139.71;84.39
3598;BME280;1813;52.016;8.714;2023-03-26T03:56:08;-16261.94;;;-139.71;84.49
3598;BME280;1813;52.016;8.714;2023-03-26T03:59:04;-16261.94;;;-139.71;84.49
3598;BME280;1813;52.016;8.714;2023-03-26T04:01:40;-16261.94;;;-139.71;84.54
3598;BME280;1813;52.016;8.714;2023-03-26T04:04:36;-16261.94;;;-139.71;84.43
3598;BME280;1813;52.016;8.714;2023-03-26T04:07:17;-16261.94;;;-139.71;84.49
3598;BME280;1813;52.016;8.714;2023-03-26T04:10:13;-16261.94;;;-139.71;84.58
3598;BME280;1813;52.016;8.714;2023-03-26T04:13:06;-16261.94;;;-139.71;84.72
3598;BME280;1813;52.016;8.714;2023-03-26T04:16:13;-16261.94;;;-139.71;84.80
3598;BME280;1813;52.016;8.714;2023-03-26T04:18:47;-16261.94;;;-139.71;85.02
3598;BME280;1813;52.016;8.714;2023-03-26T04:21:22;-16261.94;;;-139.71;85.17
3598;BME280;1813;52.016;8.714;2023-03-26T04:23:58;-16261.94;;;-139.71;85.14
3598;BME280;1813;52.016;8.714;2023-03-26T04:27:14;-16261.94;;;-139.71;85.29
3598;BME280;1813;52.016;8.714;2023-03-26T04:29:49;-16261.94;;;-139.71;85.39
3598;BME280;1813;52.016;8.714;2023-03-26T04:32:28;-16261.94;;;-139.71;85.39
3598;BME280;1813;52.016;8.714;2023-03-26T04:35:05;-16261.94;;;-139.71;85.46
3598;BME280;1813;52.016;8.714;2023-03-26T04:37:40;-16261.94;;;-139.71;85.40
3598;BME280;1813;52.016;8.714;2023-03-26T04:40:21;-16261.94;;;-139.71;85.58
3598;BME280;1813;52.016;8.714;2023-03-26T04:43:16;-16261.94;;;-139.71;85.41
3598;BME280;1813;52.016;8.714;2023-03-26T04:46:17;-16261.94;;;-139.71;85.64
3598;BME280;1813;52.016;8.714;2023-03-26T04:48:56;-16261.94;;;-139.71;85.68
3598;BME280;1813;52.016;8.714;2023-03-26T04:51:34;-16261.94;;;-139.71;85.67
3598;BME280;1813;52.016;8.714;2023-03-26T04:54:24;-16261.94;;;-139.71;85.71
3598;BME280;1813;52.016;8.714;2023-03-26T04:57:12;-16261.94;;;-139.71;85.79
3598;BME280;1813;52.016;8.714;2023-03-26T04:59:56;-16261.94;;;-139.71;85.84
3598;BME280;1813;52.016;8.714;2023-03-26T05:02:33;-16261.94;;;-139.71;85.81
3598;BME280;1813;52.016;8.714;2023-03-26T05:05:12;-16261.94;;;-139.71;85.66
3598;BME280;1813;52.016;8.714;2023-03-26T05:07:47;-16261.94;;;-139.71;85.57
3598;BME280;1813;52.016;8.714;2023-03-26T05:10:23;-16261.94;;;-139.71;85.73
3598;BME280;1813;52.016;8.714;2023-03-26T05:13:17;-16261.94;;;-139.71;85.72
3598;BME280;1813;52.016;8.714;2023-03-26T05:15:54;-16261.94;;;-139.71;85.60
3598;BME280;1813;52.016;8.714;2023-03-26T05:18:51;-16261.94;;;-139.71;85.66
3598;BME280;1813;52.016;8.714;2023-03-26T05:21:25;-16261.94;;;-139.71;85.59
3598;BME280;1813;52.016;8.714;2023-03-26T05:23:59;-16261.94;;;-139.71;85.65
3598;BME280;1813;52.016;8.714;2023-03-26T05:26:33;-16261.94;;;-139.71;85.68
3598;BME280;1813;52.016;8.714;2023-03-26T05:29:16;-16261.94;;;-139.71;85.86
3598;BME280;1813;52.016;8.714;2023-03-26T05:31:55;-16261.94;;;-139.71;85.82
3598;BME280;1813;52.016;8.714;2023-03-26T05:34:29;-16261.94;;;-139.71;86.09
3598;BME280;1813;52.016;8.714;2023-03-26T05:37:06;-16261.94;;;-139.71;86.09
3598;BME280;1813;52.016;8.714;2023-03-26T05:39:59;-16261.94;;;-139.71;86.24
3598;BME280;1813;52.016;8.714;2023-03-26T05:42:51;-16261.94;;;-139.71;86.38
3598;BME280;1813;52.016;8.714;2023-03-26T05:45:50;-16261.94;;;-139.71;86.36
3598;BME280;1813;52.016;8.714;2023-03-26T05:48:29;-16261.94;;;-139.71;86.59
3598;BME280;1813;52.016;8.714;2023-03-26T05:51:04;-16261.94;;;-139.71;86.52
3598;BME280;1813;52.016;8.714;2023-03-26T05:53:38;-16261.94;;;-139.71;86.69
3598;BME280;1813;52.016;8.714;2023-03-26T05:56:31;-16261.94;;;-139.71;86.74
3598;BME280;1813;52.016;8.714;2023-03-26T05:59:36;-16261.94;;;-139.71;86.85
3598;BME280;1813;52.016;8.714;2023-03-26T06:02:42;-16261.94;;;-139.71;86.87
3598;BME280;1813;52.016;8.714;2023-03-26T06:05:38;-16261.94;;;-139.71;86.87
3598;BME280;1813;52.016;8.714;2023-03-26T06:08:25;-16261.94;;;-139.71;86.76
3598;BME280;1813;52.016;8.714;2023-03-26T06:11:01;-16261.94;;;-139.71;86.99
3598;BME280;1813;52.016;8.714;2023-03-26T06:13:39;-16261.94;;;-139.71;86.86
3598;BME280;1813;52.016;8.714;2023-03-26T06:16:14;-16261.94;;;-139.71;86.77
3598;BME280;1813;52.016;8.714;2023-03-26T06:19:01;-16261.94;;;-139.71;86.65
3598;BME280;1813;52.016;8.714;2023-03-26T06:21:51;-16261.94;;;-139.71;86.64
3598;BME280;1813;52.016;8.714;2023-03-26T06:24:33;-16261.94;;;-139.71;86.62
3598;BME280;1813;52.016;8.714;2023-03-26T06:27:25;-16261.94;;;-139.71;86.39
3598;BME280;1813;52.016;8.714;2023-03-26T06:30:25;-16261.94;;;-139.71;86.35
3598;BME280;1813;52.016;8.714;2023-03-26T06:33:12;-16261.94;;;-139.71;86.15
3598;BME280;1813;52.016;8.714;2023-03-26T06:35:53;-16261.94;;;-139.71;86.24
3598;BME280;1813;52.016;8.714;2023-03-26T06:38:27;-16261.94;;;-139.71;86.10
3598;BME280;1813;52.016;8.714;2023-03-26T06:41:05;-16261.94;;;-139.71;86.20
3598;BME280;1813;52.016;8.714;2023-03-26T06:43:44;-16261.94;;;-139.71;85.89
3598;BME280;1813;52.016;8.714;2023-03-26T06:46:18;-16261.94;;;-139.71;85.77
3598;BME280;1813;52.016;8.714;2023-03-26T06:49:11;-16261.94;;;-139.71;85.70
3598;BME280;1813;52.016;8.714;2023-03-26T06:52:08;-16261.94;;;-139.71;85.74
3598;BME280;1813;52.016;8.714;2023-03-26T06:55:04;-16261.94;;;-139.71;85.79
3598;BME280;1813;52.016;8.714;2023-03-26T06:57:53;-16261.94;;;-139.71;85.71
3598;BME280;1813;52.016;8.714;2023-03-26T07:00:45;-16261.94;;;-139.71;85.76
3598;BME280;1813;52.016;8.714;2023-03-26T07:03:38;-16261.94;;;-139.71;85.46
3598;BME280;1813;52.016;8.714;2023-03-26T07:06:31;-16261.94;;;-139.71;85.40
3598;BME280;1813;52.016;8.714;2023-03-26T07:09:25;-16261.94;;;-139.71;85.42
3598;BME280;1813;52.016;8.714;2023-03-26T07:12:18;-16261.94;;;-139.71;85.01
3598;BME280;1813;52.016;8.714;2023-03-26T07:15:11;-16261.94;;;-139.71;84.92
3598;BME280;1813;52.016;8.714;2023-03-26T07:17:59;-16261.94;;;-139.71;84.74
3598;BME280;1813;52.016;8.714;2023-03-26T07:20:37;-16261.94;;;-139.71;84.16
3598;BME280;1813;52.016;8.714;2023-03-26T07:23:13;-16261.94;;;-139.71;83.76
3598;BME280;1813;52.016;8.714;2023-03-26T07:26:16;-16261.94;;;-139.71;83.47
3598;BME280;1813;52.016;8.714;2023-03-26T07:29:10;-16261.94;;;-139.71;82.77
3598;BME280;1813;52.016;8.714;2023-03-26T07:32:14;-16261.94;;;-139.71;82.44
3598;BME280;1813;52.016;8.714;2023-03-26T07:35:13;-16261.94;;;-139.71;81.77
3598;BME280;1813;52.016;8.714;2023-03-26T07:38:34;-16261.94;;;-139.71;82.03
3598;BME280;1813;52.016;8.714;2023-03-26T07:41:36;-16261.94;;;-139.71;81.94
3598;BME280;1813;52.016;8.714;2023-03-26T07:44:43;-16261.94;;;-139.71;81.50
3598;BME280;1813;52.016;8.714;2023-03-26T07:47:52;-16261.94;;;-139.71;81.15
3598;BME280;1813;52.016;8.714;2023-03-26T07:50:50;-16261.94;;;-139.71;80.82
3598;BME280;1813;52.016;8.714;2023-03-26T07:53:50;-16261.94;;;-139.71;81.03
3598;BME280;1813;52.016;8.714;2023-03-26T07:56:50;-16261.94;;;-139.71;80.63
3598;BME280;1813;52.016;8.714;2023-03-26T07:59:43;-16261.94;;;-139.71;80.33
3598;BME280;1813;52.016;8.714;2023-03-26T08:02:43;-16261.94;;;-139.71;79.82
3598;BME280;1813;52.016;8.714;2023-03-26T08:05:37;-16261.94;;;-139.71;79.60
3598;BME280;1813;52.016;8.714;2023-03-26T08:08:39;-16261.94;;;-139.71;79.37
3598;BME280;1813;52.016;8.714;2023-03-26T08:11:52;-16261.94;;;-139.71;78.97
3598;BME280;1813;52.016;8.714;2023-03-26T08:14:37;-16261.94;;;-139.71;78.48
3598;BME280;1813;52.016;8.714;2023-03-26T08:17:18;-16261.94;;;-139.71;77.77
3598;BME280;1813;52.016;8.714;2023-03-26T08:20:03;-16261.94;;;-139.71;77.62
3598;BME280;1813;52.016;8.714;2023-03-26T08:22:41;-16261.94;;;-139.71;78.21
3598;BME280;1813;52.016;8.714;2023-03-26T08:25:25;-16261.94;;;-139.71;77.67
3598;BME280;1813;52.016;8.714;2023-03-26T08:28:18;-16261.94;;;-139.71;77.42
3598;BME280;1813;52.016;8.714;2023-03-26T08:30:55;-16261.94;;;-139.71;77.79
3598;BME280;1813;52.016;8.714;2023-03-26T08:33:32;-16261.94;;;-139.71;77.67
3598;BME280;1813;52.016;8.714;2023-03-26T08:36:07;-16261.94;;;-139.71;77.66
3598;BME280;1813;52.016;8.714;2023-03-26T08:38:41;-16261.94;;;-139.71;77.74
3598;BME280;1813;52.016;8.714;2023-03-26T08:41:38;-16261.94;;;-139.71;77.61
3598;BME280;1813;52.016;8.714;2023-03-26T08:44:53;-16261.94;;;-139.71;77.12
3598;BME280;1813;52.016;8.714;2023-03-26T08:50:54;-16261.94;;;-139.71;77.08
3598;BME280;1813;52.016;8.714;2023-03-26T08:54:05;-16261.94;;;-139.71;77.37
3598;BME280;1813;52.016;8.714;2023-03-26T08:56:50;-16261.94;;;-139.71;76.97
3598;BME280;1813;52.016;8.714;2023-03-26T09:03:01;-16261.94;;;-139.71;76.01
3598;BME280;1813;52.016;8.714;2023-03-26T09:12:30;-16261.94;;;-139.71;75.64
3598;BME280;1813;52.016;8.714;2023-03-26T09:18:45;-16261.94;;;-139.71;72.69
3598;BME280;1813;52.016;8.714;2023-03-26T09:25:01;-16261.94;;;-139.71;70.86
3598;BME280;1813;52.016;8.714;2023-03-26T09:27:56;-16261.94;;;-139.71;70.03
3598;BME280;1813;52.016;8.714;2023-03-26T09:30:59;-16261.94;;;-139.71;69.18
3598;BME280;1813;52.016;8.714;2023-03-26T09:33:54;-16261.94;;;-139.71;70.11
3598;BME280;1813;52.016;8.714;2023-03-26T09:36:54;-16261.94;;;-139.71;70.72
3598;BME280;1813;52.016;8.714;2023-03-26T09:39:35;-16261.94;;;-139.71;70.46
3598;BME280;1813;52.016;8.714;2023-03-26T09:42:16;-16261.94;;;-139.71;69.10
3598;BME280;1813;52.016;8.714;2023-03-26T09:45:19;-16261.94;;;-139.71;69.00
3598;BME280;1813;52.016;8.714;2023-03-26T09:51:31;-16261.94;;;-139.71;69.66
3598;BME280;1813;52.016;8.714;2023-03-26T09:54:37;-16261.94;;;-139.71;69.24
3598;BME280;1813;52.016;8.714;2023-03-26T09:57:33;-16261.94;;;-139.71;68.70
3598;BME280;1813;52.016;8.714;2023-03-26T10:00:21;-16261.94;;;-139.71;68.36
3598;BME280;1813;52.016;8.714;2023-03-26T10:03:13;-16261.94;;;-139.71;67.88
3598;BME280;1813;52.016;8.714;2023-03-26T10:06:22;-16261.94;;;-139.71;66.67
3598;BME280;1813;52.016;8.714;2023-03-26T10:09:31;-16261.94;;;-139.71;67.10
3598;BME280;1813;52.016;8.714;2023-03-26T10:12:17;-16261.94;;;-139.71;66.93
3598;BME280;1813;52.016;8.714;2023-03-26T10:15:03;-16261.94;;;-139.71;66.25
3598;BME280;1813;52.016;8.714;2023-03-26T10:17:53;-16261.94;;;-139.71;67.07
3598;BME280;1813;52.016;8.714;2023-03-26T10:20:33;-16261.94;;;-139.71;66.60
3598;BME280;1813;52.016;8.714;2023-03-26T10:23:34;-16261.94;;;-139.71;65.69
3598;BME280;1813;52.016;8.714;2023-03-26T10:26:23;-16261.94;;;-139.71;65.95
3598;BME280;1813;52.016;8.714;2023-03-26T10:29:16;-16261.94;;;-139.71;66.96
3598;BME280;1813;52.016;8.714;2023-03-26T10:32:08;-16261.94;;;-139.71;66.83
3598;BME280;1813;52.016;8.714;2023-03-26T10:34:57;-16261.94;;;-139.71;66.26
3598;BME280;1813;52.016;8.714;2023-03-26T10:37:46;-16261.94;;;-139.71;65.94
3598;BME280;1813;52.016;8.714;2023-03-26T10:40:29;-16261.94;;;-139.71;66.02
3598;BME280;1813;52.016;8.714;2023-03-26T10:43:27;-16261.94;;;-139.71;66.07
3598;BME280;1813;52.016;8.714;2023-03-26T10:46:12;-16261.94;;;-139.71;66.50
3598;BME280;1813;52.016;8.714;2023-03-26T10:52:08;-16261.94;;;-139.71;66.85
3598;BME280;1813;52.016;8.714;2023-03-26T10:54:53;-16261.94;;;-139.71;67.17
3598;BME280;1813;52.016;8.714;2023-03-26T10:57:36;-16261.94;;;-139.71;68.49
3598;BME280;1813;52.016;8.714;2023-03-26T11:00:17;-16261.94;;;-139.71;70.45
3598;BME280;1813;52.016;8.714;2023-03-26T11:03:10;-16261.94;;;-139.71;71.19
3598;BME280;1813;52.016;8.714;2023-03-26T11:05:58;-16261.94;;;-139.71;72.08
3598;BME280;1813;52.016;8.714;2023-03-26T11:08:38;-16261.94;;;-139.71;72.50
3598;BME280;1813;52.016;8.714;2023-03-26T11:11:20;-16261.94;;;-139.71;73.15
3598;BME280;1813;52.016;8.714;2023-03-26T11:14:03;-16261.94;;;-139.71;73.56
3598;BME280;1813;52.016;8.714;2023-03-26T11:16:50;-16261.94;;;-139.71;73.96
3598;BME280;1813;52.016;8.714;2023-03-26T11:19:30;-16261.94;;;-139.71;74.87
3598;BME280;1813;52.016;8.714;2023-03-26T11:22:15;-16261.94;;;-139.71;75.22
3598;BME280;1813;52.016;8.714;2023-03-26T11:25:08;-16261.94;;;-139.71;75.38
3598;BME280;1813;52.016;8.714;2023-03-26T11:27:58;-16261.94;;;-139.71;75.38
3598;BME280;1813;52.016;8.714;2023-03-26T11:30:44;-16261.94;;;-139.71;75.82
3598;BME280;1813;52.016;8.714;2023-03-26T11:33:24;-16261.94;;;-139.71;76.51
3598;BME280;1813;52.016;8.714;2023-03-26T11:36:02;-16261.94;;;-139.71;76.30
3598;BME280;1813;52.016;8.714;2023-03-26T11:38:41;-16261.94;;;-139.71;76.08
3598;BME280;1813;52.016;8.714;2023-03-26T11:41:22;-16261.94;;;-139.71;75.84
3598;BME280;1813;52.016;8.714;2023-03-26T11:44:15;-16261.94;;;-139.71;76.00
3598;BME280;1813;52.016;8.714;2023-03-26T11:46:55;-16261.94;;;-139.71;76.90
3598;BME280;1813;52.016;8.714;2023-03-26T11:49:33;-16261.94;;;-139.71;77.52
3598;BME280;1813;52.016;8.714;2023-03-26T11:52:10;-16261.94;;;-139.71;77.91
3598;BME280;1813;52.016;8.714;2023-03-26T11:54:45;-16261.94;;;-139.71;78.06
3598;BME280;1813;52.016;8.714;2023-03-26T11:57:24;-16261.94;;;-139.71;78.42
3598;BME280;1813;52.016;8.714;2023-03-26T12:00:02;-16261.94;;;-139.71;78.85
3598;BME280;1813;52.016;8.714;2023-03-26T12:02:47;-16261.94;;;-139.71;79.43
3598;BME280;1813;52.016;8.714;2023-03-26T12:05:25;-16261.94;;;-139.71;79.93
3598;BME280;1813;52.016;8.714;2023-03-26T12:08:17;-16261.94;;;-139.71;80.82
3598;BME280;1813;52.016;8.714;2023-03-26T12:10:59;-16261.94;;;-139.71;81.04
3598;BME280;1813;52.016;8.714;2023-03-26T12:13:38;-16261.94;;;-139.71;81.41
3598;BME280;1813;52.016;8.714;2023-03-26T12:16:16;-16261.94;;;-139.71;79.35
3598;BME280;1813;52.016;8.714;2023-03-26T12:18:59;-16261.94;;;-139.71;77.43
3598;BME280;1813;52.016;8.714;2023-03-26T12:21:46;-16261.94;;;-139.71;77.37
3598;BME280;1813;52.016;8.714;2023-03-26T12:24:26;-16261.94;;;-139.71;77.44
3598;BME280;1813;52.016;8.714;2023-03-26T12:27:19;-16261.94;;;-139.71;77.04
3598;BME280;1813;52.016;8.714;2023-03-26T12:29:58;-16261.94;;;-139.71;77.00
3598;BME280;1813;52.016;8.714;2023-03-26T12:32:38;-16261.94;;;-139.71;76.61
3598;BME280;1813;52.016;8.714;2023-03-26T12:35:16;-16261.94;;;-139.71;76.65
3598;BME280;1813;52.016;8.714;2023-03-26T12:37:54;-16261.94;;;-139.71;76.55
3598;BME280;1813;52.016;8.714;2023-03-26T12:40:31;-16261.94;;;-139.71;76.05
3598;BME280;1813;52.016;8.714;2023-03-26T12:43:21;-16261.94;;;-139.71;75.59
3598;BME280;1813;52.016;8.714;2023-03-26T12:45:56;-16261.94;;;-139.71;75.41
3598;BME280;1813;52.016;8.714;2023-03-26T12:48:32;-16261.94;;;-139.71;75.71
3598;BME280;1813;52.016;8.714;2023-03-26T12:51:14;-16261.94;;;-139.71;75.81
3598;BME280;1813;52.016;8.714;2023-03-26T12:54:02;-16261.94;;;-139.71;75.23
3598;BME280;1813;52.016;8.714;2023-03-26T12:56:50;-16261.94;;;-139.71;74.90
3598;BME280;1813;52.016;8.714;2023-03-26T12:59:40;-16261.94;;;-139.71;75.41
3598;BME280;1813;52.016;8.714;2023-03-26T13:02:32;-16261.94;;;-139.71;76.67
3598;BME280;1813;52.016;8.714;2023-03-26T13:05:24;-16261.94;;;-139.71;77.00
3598;BME280;1813;52.016;8.714;2023-03-26T13:08:17;-16261.94;;;-139.71;77.74
3598;BME280;1813;52.016;8.714;2023-03-26T13:11:06;-16261.94;;;-139.71;78.51
3598;BME280;1813;52.016;8.714;2023-03-26T13:17:03;-16261.94;;;-139.71;79.43
3598;BME280;1813;52.016;8.714;2023-03-26T13:19:41;-16261.94;;;-139.71;79.54
3598;BME280;1813;52.016;8.714;2023-03-26T13:22:25;-16261.94;;;-139.71;79.42
3598;BME280;1813;52.016;8.714;2023-03-26T13:25:12;-16261.94;;;-139.71;78.66
3598;BME280;1813;52.016;8.714;2023-03-26T13:28:00;-16261.94;;;-139.71;78.77
3598;BME280;1813;52.016;8.714;2023-03-26T13:30:43;-16261.94;;;-139.71;79.45
3598;BME280;1813;52.016;8.714;2023-03-26T13:33:31;-16261.94;;;-139.71;79.86
3598;BME280;1813;52.016;8.714;2023-03-26T13:36:14;-16261.94;;;-139.71;80.16
3598;BME280;1813;52.016;8.714;2023-03-26T13:39:08;-16261.94;;;-139.71;80.52
3598;BME280;1813;52.016;8.714;2023-03-26T13:41:54;-16261.94;;;-139.71;80.63
3598;BME280;1813;52.016;8.714;2023-03-26T13:44:44;-16261.94;;;-139.71;80.67
3598;BME280;1813;52.016;8.714;2023-03-26T13:47:24;-16261.94;;;-139.71;80.45
3598;BME280;1813;52.016;8.714;2023-03-26T13:50:04;-16261.94;;;-139.71;80.35
3598;BME280;1813;52.016;8.714;2023-03-26T13:52:42;-16261.94;;;-139.71;80.07
3598;BME280;1813;52.016;8.714;2023-03-26T13:55:21;-16261.94;;;-139.71;80.08
3598;BME280;1813;52.016;8.714;2023-03-26T13:58:02;-16261.94;;;-139.71;80.03
3598;BME280;1813;52.016;8.714;2023-03-26T14:00:49;-16261.94;;;-139.71;79.80
3598;BME280;1813;52.016;8.714;2023-03-26T14:03:30;-16261.94;;;-139.71;79.13
3598;BME280;1813;52.016;8.714;2023-03-26T14:06:23;-16261.94;;;-139.71;78.03
3598;BME280;1813;52.016;8.714;2023-03-26T14:09:04;-16261.94;;;-139.71;77.17
3598;BME280;1813;52.016;8.714;2023-03-26T14:11:48;-16261.94;;;-139.71;77.42
3598;BME280;1813;52.016;8.714;2023-03-26T14:14:32;-16261.94;;;-139.71;78.06
3598;BME280;1813;52.016;8.714;2023-03-26T14:17:16;-16261.94;;;-139.71;78.35
3598;BME280;1813;52.016;8.714;2023-03-26T14:23:21;-16261.94;;;-139.71;78.73
3598;BME280;1813;52.016;8.714;2023-03-26T14:26:12;-16261.94;;;-139.71;79.37
3598;BME280;1813;52.016;8.714;2023-03-26T14:29:14;-16261.94;;;-139.71;79.51
3598;BME280;1813;52.016;8.714;2023-03-26T14:32:00;-16261.94;;;-139.71;79.71
3598;BME280;1813;52.016;8.714;2023-03-26T14:34:56;-16261.94;;;-139.71;79.83
3598;BME280;1813;52.016;8.714;2023-03-26T14:37:51;-16261.94;;;-139.71;80.15
3598;BME280;1813;52.016;8.714;2023-03-26T14:40:28;-16261.94;;;-139.71;79.68
3598;BME280;1813;52.016;8.714;2023-03-26T14:43:27;-16261.94;;;-139.71;79.62
3598;BME280;1813;52.016;8.714;2023-03-26T14:46:12;-16261.94;;;-139.71;79.38
3598;BME280;1813;52.016;8.714;2023-03-26T14:49:15;-16261.94;;;-139.71;79.06
3598;BME280;1813;52.016;8.714;2023-03-26T14:52:00;-16261.94;;;-139.71;78.88
3598;BME280;1813;52.016;8.714;2023-03-26T14:54:37;-16261.94;;;-139.71;79.33
3598;BME280;1813;52.016;8.714;2023-03-26T14:57:37;-16261.94;;;-139.71;79.27